createdAt,value
2019-03-25T00:01:56.885Z,101490.91
2019-03-25T00:04:27.773Z,101491.41
2019-03-25T00:06:58.723Z,101492.33
2019-03-25T00:09:29.633Z,101493.20
2019-03-25T00:12:00.569Z,101487.16
2019-03-25T00:14:31.541Z,101485.02
2019-03-25T00:17:02.726Z,101478.55
2019-03-25T00:19:33.622Z,101474.72
2019-03-25T00:22:04.606Z,101476.48
2019-03-25T00:24:39.037Z,101475.22
2019-03-25T00:27:09.056Z,101469.61
2019-03-25T00:29:39.944Z,101470.98
2019-03-25T00:32:10.859Z,101468.45
2019-03-25T00:34:41.754Z,101464.59
2019-03-25T00:37:13.489Z,101454.63
2019-03-25T00:39:44.399Z,101447.75
2019-03-25T00:42:15.323Z,101444.77
2019-03-25T00:44:46.229Z,101435.73
2019-03-25T00:47:17.155Z,101429.63
2019-03-25T00:49:48.042Z,101416.66
2019-03-25T00:52:18.985Z,101415.34
2019-03-25T00:54:50.448Z,101412.30
2019-03-25T00:57:21.355Z,101412.30
2019-03-25T00:59:52.251Z,101405.38
2019-03-25T01:02:24.056Z,101407.14
2019-03-25T01:04:54.945Z,101399.39
2019-03-25T01:07:26.772Z,101398.14
2019-03-25T01:09:57.668Z,101388.66
2019-03-25T01:12:28.602Z,101386.87
2019-03-25T01:14:59.562Z,101393.45
2019-03-25T01:17:35.712Z,101383.92
2019-03-25T01:20:07.280Z,101380.45
2019-03-25T01:22:40.220Z,101374.83
2019-03-25T01:25:11.274Z,101370.97
2019-03-25T01:27:42.205Z,101370.20
2019-03-25T01:30:13.200Z,101364.16
2019-03-25T01:32:44.123Z,101359.37
2019-03-25T01:35:15.010Z,101352.84
2019-03-25T01:37:47.852Z,101349.41
2019-03-25T01:40:18.745Z,101341.58
2019-03-25T01:42:49.666Z,101332.42
2019-03-25T01:45:20.670Z,101327.59
2019-03-25T01:47:51.588Z,101326.66
2019-03-25T01:50:22.487Z,101322.30
2019-03-25T01:52:53.436Z,101317.56
2019-03-25T01:55:24.326Z,101317.14
2019-03-25T01:57:55.248Z,101313.22
2019-03-25T02:00:26.151Z,101314.59
2019-03-25T02:02:57.093Z,101309.79
2019-03-25T02:05:27.989Z,101307.60
2019-03-25T02:07:59.742Z,101299.77
2019-03-25T02:10:30.642Z,101304.08
2019-03-25T02:13:01.569Z,101304.08
2019-03-25T02:15:32.463Z,101292.76
2019-03-25T02:18:03.382Z,101291.06
2019-03-25T02:20:34.268Z,101287.09
2019-03-25T02:23:06.252Z,101284.48
2019-03-25T02:25:38.074Z,101280.17
2019-03-25T02:28:08.993Z,101278.86
2019-03-25T02:30:39.904Z,101281.88
2019-03-25T02:33:10.833Z,101275.39
2019-03-25T02:35:41.722Z,101267.06
2019-03-25T02:38:12.691Z,101264.78
2019-03-25T02:40:43.570Z,101258.69
2019-03-25T02:43:14.494Z,101256.01
2019-03-25T02:45:45.402Z,101250.78
2019-03-25T02:48:16.309Z,101254.22
2019-03-25T02:50:47.212Z,101248.98
2019-03-25T02:53:18.152Z,101244.19
2019-03-25T02:55:49.043Z,101243.70
2019-03-25T02:58:19.987Z,101243.65
2019-03-25T03:00:53.225Z,101231.94
2019-03-25T03:03:24.239Z,101228.52
2019-03-25T03:05:55.130Z,101231.61
2019-03-25T03:08:26.081Z,101231.61
2019-03-25T03:10:57.040Z,101232.10
2019-03-25T03:13:28.017Z,101225.69
2019-03-25T03:15:59.014Z,101224.00
2019-03-25T03:18:29.952Z,101220.54
2019-03-25T03:21:02.828Z,101214.55
2019-03-25T03:23:33.783Z,101212.87
2019-03-25T03:26:04.664Z,101207.76
2019-03-25T03:28:35.589Z,101203.47
2019-03-25T03:31:06.583Z,101199.13
2019-03-25T03:33:37.498Z,101191.78
2019-03-25T03:36:08.393Z,101197.91
2019-03-25T03:38:39.347Z,101192.70
2019-03-25T03:41:10.262Z,101184.10
2019-03-25T03:43:41.260Z,101182.86
2019-03-25T03:46:12.146Z,101182.86
2019-03-25T03:48:43.074Z,101181.55
2019-03-25T03:51:13.972Z,101183.77
2019-03-25T03:53:45.045Z,101187.64
2019-03-25T03:56:16.029Z,101176.76
2019-03-25T03:58:47.059Z,101174.54
2019-03-25T04:01:17.942Z,101175.78
2019-03-25T04:03:48.881Z,101175.83
2019-03-25T04:06:19.770Z,101169.79
2019-03-25T04:08:51.573Z,101174.08
2019-03-25T04:11:22.472Z,101165.01
2019-03-25T04:13:53.460Z,101165.01
2019-03-25T04:16:24.427Z,101165.01
2019-03-25T04:18:55.353Z,101162.84
2019-03-25T04:21:26.263Z,101165.89
2019-03-25T04:23:57.224Z,101161.16
2019-03-25T04:26:29.676Z,101155.89
2019-03-25T04:29:00.669Z,101159.34
2019-03-25T04:31:31.565Z,101151.52
2019-03-25T04:34:02.496Z,101147.59
2019-03-25T04:36:33.407Z,101154.50
2019-03-25T04:39:06.062Z,101142.75
2019-03-25T04:41:39.545Z,101147.05
2019-03-25T04:44:10.539Z,101147.88
2019-03-25T04:46:45.679Z,101145.26
2019-03-25T04:49:16.618Z,101142.64
2019-03-25T04:51:47.582Z,101140.02
2019-03-25T04:54:19.338Z,101141.77
2019-03-25T04:56:50.235Z,101145.58
2019-03-25T04:59:21.176Z,101145.13
2019-03-25T05:01:52.065Z,101142.84
2019-03-25T05:04:22.989Z,101140.55
2019-03-25T05:06:53.892Z,101144.34
2019-03-25T05:09:24.837Z,101139.42
2019-03-25T05:11:55.735Z,101136.64
2019-03-25T05:14:26.665Z,101140.81
2019-03-25T05:16:57.566Z,101129.72
2019-03-25T05:19:28.500Z,101131.63
2019-03-25T05:21:59.411Z,101122.28
2019-03-25T05:24:30.430Z,101117.31
2019-03-25T05:27:02.127Z,101111.80
2019-03-25T05:29:33.056Z,101111.39
2019-03-25T05:32:03.969Z,101103.95
2019-03-25T05:34:34.881Z,101102.55
2019-03-25T05:37:05.851Z,101104.31
2019-03-25T05:39:37.590Z,101100.97
2019-03-25T05:42:08.484Z,101093.38
2019-03-25T05:44:39.419Z,101100.52
2019-03-25T05:47:10.387Z,101093.55
2019-03-25T05:49:41.318Z,101091.37
2019-03-25T05:52:12.240Z,101088.13
2019-03-25T05:54:43.990Z,101090.68
2019-03-25T05:57:14.896Z,101084.70
2019-03-25T05:59:45.826Z,101086.70
2019-03-25T06:02:16.758Z,101092.12
2019-03-25T06:04:47.667Z,101079.64
2019-03-25T06:07:18.566Z,101079.78
2019-03-25T06:09:49.507Z,101080.94
2019-03-25T06:12:20.414Z,101079.33
2019-03-25T06:14:51.343Z,101069.20
2019-03-25T06:17:22.315Z,101077.67
2019-03-25T06:19:53.233Z,101078.03
2019-03-25T06:22:24.198Z,101078.09
2019-03-25T06:24:55.289Z,101076.41
2019-03-25T06:27:26.187Z,101064.83
2019-03-25T06:29:57.122Z,101063.59
2019-03-25T06:32:28.026Z,101065.36
2019-03-25T06:34:58.955Z,101069.30
2019-03-25T06:37:29.856Z,101074.80
2019-03-25T06:40:01.604Z,101081.20
2019-03-25T06:42:32.512Z,101077.45
2019-03-25T06:45:03.536Z,101076.02
2019-03-25T06:47:34.454Z,101071.93
2019-03-25T06:50:07.932Z,101074.42
2019-03-25T06:52:38.854Z,101071.36
2019-03-25T06:55:10.907Z,101069.79
2019-03-25T06:57:42.020Z,101069.27
2019-03-25T07:00:13.350Z,101080.72
2019-03-25T07:02:44.251Z,101076.03
2019-03-25T07:05:16.169Z,101077.16
2019-03-25T07:07:47.074Z,101080.48
2019-03-25T07:10:36.719Z,101080.59
2019-03-25T07:13:07.719Z,101077.06
2019-03-25T07:15:39.440Z,101081.63
2019-03-25T07:18:10.370Z,101074.37
2019-03-25T07:20:41.276Z,101079.55
2019-03-25T07:23:12.168Z,101077.72
2019-03-25T07:25:43.898Z,101072.88
2019-03-25T07:28:15.610Z,101084.58
2019-03-25T07:30:46.528Z,101082.06
2019-03-25T07:33:17.425Z,101075.40
2019-03-25T07:35:48.361Z,101080.13
2019-03-25T07:38:19.269Z,101076.08
2019-03-25T07:40:50.493Z,101072.14
2019-03-25T07:43:21.387Z,101071.63
2019-03-25T07:45:52.314Z,101071.48
2019-03-25T07:48:23.223Z,101074.69
2019-03-25T07:50:54.150Z,101076.45
2019-03-25T07:53:25.064Z,101070.16
2019-03-25T07:55:56.163Z,101074.63
2019-03-25T07:58:27.037Z,101069.67
2019-03-25T08:00:57.958Z,101066.38
2019-03-25T08:03:28.851Z,101066.27
2019-03-25T08:05:59.788Z,101067.73
2019-03-25T08:08:30.695Z,101068.83
2019-03-25T08:11:01.659Z,101067.52
2019-03-25T08:13:32.580Z,101073.70
2019-03-25T08:16:03.636Z,101069.00
2019-03-25T08:18:34.572Z,101073.20
2019-03-25T08:21:06.426Z,101069.86
2019-03-25T08:23:37.337Z,101068.23
2019-03-25T08:26:09.093Z,101075.27
2019-03-25T08:28:40.751Z,101075.81
2019-03-25T08:31:11.748Z,101069.91
2019-03-25T08:33:42.650Z,101073.78
2019-03-25T08:36:13.602Z,101072.47
2019-03-25T08:38:44.540Z,101067.33
2019-03-25T08:41:15.440Z,101071.27
2019-03-25T08:43:47.186Z,101070.33
2019-03-25T08:46:18.082Z,101069.00
2019-03-25T08:48:48.996Z,101064.63
2019-03-25T08:51:19.894Z,101067.94
2019-03-25T08:53:50.816Z,101070.45
2019-03-25T08:56:21.734Z,101067.38
2019-03-25T08:58:52.672Z,101065.36
2019-03-25T09:01:23.560Z,101057.97
2019-03-25T09:03:54.491Z,101059.31
2019-03-25T09:06:25.384Z,101059.78
2019-03-25T09:08:56.304Z,101053.19
2019-03-25T09:11:27.228Z,101055.91
2019-03-25T09:13:58.230Z,101056.75
2019-03-25T09:16:29.150Z,101057.80
2019-03-25T09:19:00.074Z,101049.98
2019-03-25T09:21:30.985Z,101055.72
2019-03-25T09:24:01.923Z,101054.81
2019-03-25T09:26:36.381Z,101053.54
2019-03-25T09:29:08.934Z,101052.07
2019-03-25T09:31:39.853Z,101053.69
2019-03-25T09:34:10.868Z,101047.61
2019-03-25T09:36:41.762Z,101051.41
2019-03-25T09:39:12.756Z,101049.53
2019-03-25T09:41:43.650Z,101053.02
2019-03-25T09:44:14.627Z,101052.31
2019-03-25T09:46:47.410Z,101057.70
2019-03-25T09:49:18.329Z,101053.08
2019-03-25T09:51:49.292Z,101061.77
2019-03-25T09:54:20.229Z,101055.05
2019-03-25T09:56:51.151Z,101051.71
2019-03-25T09:59:22.984Z,101046.83
2019-03-25T10:01:53.916Z,101044.31
2019-03-25T10:04:24.851Z,101045.93
2019-03-25T10:06:55.769Z,101040.92
2019-03-25T10:09:26.707Z,101046.67
2019-03-25T10:11:57.614Z,101041.45
2019-03-25T10:14:31.437Z,101047.90
2019-03-25T10:17:02.336Z,101042.97
2019-03-25T10:19:33.289Z,101049.80
2019-03-25T10:22:04.200Z,101048.48
2019-03-25T10:24:35.126Z,101041.29
2019-03-25T10:27:06.023Z,101050.45
2019-03-25T10:29:39.381Z,101050.34
2019-03-25T10:32:10.292Z,101051.66
2019-03-25T10:34:41.221Z,101052.80
2019-03-25T10:37:12.325Z,101045.83
2019-03-25T10:39:43.264Z,101049.02
2019-03-25T10:42:14.173Z,101049.80
2019-03-25T10:44:46.000Z,101047.91
2019-03-25T10:47:16.897Z,101045.33
2019-03-25T10:49:47.851Z,101046.94
2019-03-25T10:52:18.755Z,101048.98
2019-03-25T10:54:49.787Z,101051.23
2019-03-25T10:57:20.760Z,101048.55
2019-03-25T10:59:52.518Z,101051.08
2019-03-25T11:02:23.402Z,101057.86
2019-03-25T11:04:54.338Z,101060.23
2019-03-25T11:07:25.342Z,101061.66
2019-03-25T11:09:56.306Z,101064.00
2019-03-25T11:12:27.273Z,101068.89
2019-03-25T11:14:59.829Z,101075.97
2019-03-25T11:17:30.725Z,101076.76
2019-03-25T11:20:01.667Z,101078.34
2019-03-25T11:22:32.579Z,101079.86
2019-03-25T11:25:03.815Z,101082.06
2019-03-25T11:27:34.706Z,101086.59
2019-03-25T11:30:11.882Z,101090.25
2019-03-25T11:32:42.792Z,101095.02
2019-03-25T11:35:13.929Z,101105.12
2019-03-25T11:37:44.835Z,101115.09
2019-03-25T11:40:16.471Z,101109.39
2019-03-25T11:42:47.373Z,101109.17
2019-03-25T11:45:20.775Z,101109.48
2019-03-25T11:47:51.671Z,101112.50
2019-03-25T11:50:22.602Z,101105.14
2019-03-25T11:52:53.495Z,101107.72
2019-03-25T11:55:24.422Z,101107.83
2019-03-25T11:57:55.337Z,101108.20
2019-03-25T12:00:27.887Z,101102.81
2019-03-25T12:02:58.783Z,101109.66
2019-03-25T12:05:29.714Z,101116.64
2019-03-25T12:08:00.592Z,101116.32
2019-03-25T12:10:31.519Z,101123.59
2019-03-25T12:13:02.413Z,101130.48
2019-03-25T12:15:33.507Z,101131.94
2019-03-25T12:18:04.638Z,101136.87
2019-03-25T12:20:35.553Z,101139.36
2019-03-25T12:23:06.454Z,101143.02
2019-03-25T12:25:37.364Z,101142.58
2019-03-25T12:28:08.278Z,101138.87
2019-03-25T12:30:40.802Z,101143.61
2019-03-25T12:33:11.694Z,101139.31
2019-03-25T12:35:42.725Z,101145.86
2019-03-25T12:38:13.629Z,101146.34
2019-03-25T12:40:44.644Z,101149.81
2019-03-25T12:43:15.556Z,101154.43
2019-03-25T12:45:47.297Z,101156.41
2019-03-25T12:48:18.183Z,101165.30
2019-03-25T12:50:49.113Z,101167.67
2019-03-25T12:53:20.009Z,101160.53
2019-03-25T12:55:50.991Z,101164.98
2019-03-25T12:58:21.889Z,101168.44
2019-03-25T13:00:53.635Z,101173.03
2019-03-25T13:03:24.519Z,101167.56
2019-03-25T13:05:55.547Z,101171.77
2019-03-25T13:08:32.978Z,101178.98
2019-03-25T13:10:59.142Z,101181.48
2019-03-25T13:13:30.087Z,101178.67
2019-03-25T13:16:01.857Z,101178.86
2019-03-25T13:18:32.812Z,101176.30
2019-03-25T13:21:03.724Z,101185.23
2019-03-25T13:23:34.616Z,101194.94
2019-03-25T13:26:05.548Z,101185.58
2019-03-25T13:28:36.446Z,101189.49
2019-03-25T13:31:09.066Z,101193.73
2019-03-25T13:33:40.032Z,101199.45
2019-03-25T13:36:10.988Z,101202.13
2019-03-25T13:38:41.887Z,101200.68
2019-03-25T13:41:13.750Z,101200.42
2019-03-25T13:43:44.644Z,101202.30
2019-03-25T13:46:15.597Z,101197.56
2019-03-25T13:48:46.489Z,101210.07
2019-03-25T13:51:19.284Z,101204.96
2019-03-25T13:53:50.185Z,101203.20
2019-03-25T13:56:21.131Z,101213.45
2019-03-25T13:58:52.038Z,101212.55
2019-03-25T14:01:22.981Z,101212.70
2019-03-25T14:03:53.879Z,101211.39
2019-03-25T14:06:24.805Z,101213.75
2019-03-25T14:08:55.890Z,101212.21
2019-03-25T14:11:26.888Z,101219.83
2019-03-25T14:14:00.117Z,101220.09
2019-03-25T14:16:31.213Z,101215.02
2019-03-25T14:19:02.116Z,101221.49
2019-03-25T14:21:33.043Z,101221.67
2019-03-25T14:24:03.950Z,101225.28
2019-03-25T14:26:34.863Z,101221.49
2019-03-25T14:29:05.820Z,101222.73
2019-03-25T14:31:37.666Z,101228.50
2019-03-25T14:34:08.568Z,101235.64
2019-03-25T14:36:39.494Z,101241.92
2019-03-25T14:39:10.376Z,101234.30
2019-03-25T14:41:41.370Z,101246.77
2019-03-25T14:44:12.330Z,101247.55
2019-03-25T14:46:44.084Z,101256.53
2019-03-25T14:49:14.976Z,101257.95
2019-03-25T14:51:45.909Z,101261.64
2019-03-25T14:54:16.816Z,101267.16
2019-03-25T14:56:47.752Z,101269.07
2019-03-25T14:59:18.645Z,101276.44
2019-03-25T15:01:50.388Z,101278.88
2019-03-25T15:04:21.280Z,101277.63
2019-03-25T15:06:52.205Z,101285.05
2019-03-25T15:09:23.098Z,101300.98
2019-03-25T15:11:54.032Z,101297.48
2019-03-25T15:14:24.927Z,101301.57
2019-03-25T15:16:56.695Z,101302.77
2019-03-25T15:19:27.601Z,101307.17
2019-03-25T15:21:58.513Z,101311.11
2019-03-25T15:24:29.415Z,101317.84
2019-03-25T15:27:00.335Z,101315.10
2019-03-25T15:29:31.219Z,101326.38
2019-03-25T15:32:04.447Z,101328.95
2019-03-25T15:34:35.299Z,101328.84
2019-03-25T15:37:06.225Z,101334.44
2019-03-25T15:39:46.399Z,101348.52
2019-03-25T15:42:09.742Z,101336.79
2019-03-25T15:44:40.644Z,101353.09
2019-03-25T15:47:13.480Z,101363.67
2019-03-25T15:49:44.395Z,101357.77
2019-03-25T15:52:15.314Z,101374.86
2019-03-25T15:54:46.207Z,101372.11
2019-03-25T15:57:17.156Z,101376.14
2019-03-25T15:59:48.041Z,101374.27
2019-03-25T16:02:19.806Z,101381.19
2019-03-25T16:04:52.774Z,101392.66
2019-03-25T16:07:23.780Z,101390.47
2019-03-25T16:09:54.671Z,101397.91
2019-03-25T16:12:25.609Z,101398.12
2019-03-25T16:14:56.491Z,101406.87
2019-03-25T16:17:27.583Z,101416.09
2019-03-25T16:19:58.480Z,101419.94
2019-03-25T16:22:29.400Z,101417.98
2019-03-25T16:25:00.447Z,101418.94
2019-03-25T16:27:31.484Z,101422.07
2019-03-25T16:30:02.391Z,101423.57
2019-03-25T16:32:35.107Z,101431.45
2019-03-25T16:35:06.884Z,101429.39
2019-03-25T16:37:37.810Z,101439.48
2019-03-25T16:40:08.922Z,101438.31
2019-03-25T16:42:40.284Z,101438.83
2019-03-25T16:45:11.942Z,101438.91
2019-03-25T16:47:43.780Z,101442.19
2019-03-25T16:50:14.698Z,101445.41
2019-03-25T16:52:45.700Z,101453.73
2019-03-25T16:55:16.609Z,101460.87
2019-03-25T16:57:47.544Z,101460.13
2019-03-25T17:00:27.353Z,101452.64
2019-03-25T17:02:54.228Z,101457.53
2019-03-25T17:05:25.155Z,101457.14
2019-03-25T17:07:56.099Z,101463.70
2019-03-25T17:10:27.067Z,101471.23
2019-03-25T17:12:58.006Z,101480.91
2019-03-25T17:15:31.320Z,101483.53
2019-03-25T17:18:04.744Z,101489.59
2019-03-25T17:20:35.656Z,101496.56
2019-03-25T17:23:06.585Z,101498.30
2019-03-25T17:25:37.504Z,101502.31
2019-03-25T17:28:08.428Z,101503.55
2019-03-25T17:30:39.324Z,101513.39
2019-03-25T17:33:12.189Z,101512.45
2019-03-25T17:35:43.084Z,101513.64
2019-03-25T17:38:14.021Z,101515.88
2019-03-25T17:40:45.042Z,101526.59
2019-03-25T17:43:15.989Z,101526.53
2019-03-25T17:45:46.885Z,101533.16
2019-03-25T17:48:20.455Z,101534.38
2019-03-25T17:50:52.902Z,101537.45
2019-03-25T17:53:23.176Z,101546.80
2019-03-25T17:55:54.082Z,101548.09
2019-03-25T17:58:25.018Z,101549.78
2019-03-25T18:01:00.949Z,101558.52
2019-03-25T18:03:32.799Z,101561.70
2019-03-25T18:06:06.479Z,101561.70
2019-03-25T18:08:37.411Z,101566.11
2019-03-25T18:11:08.308Z,101578.47
2019-03-25T18:13:39.244Z,101586.48
2019-03-25T18:16:10.217Z,101573.44
2019-03-25T18:18:41.986Z,101583.20
2019-03-25T18:21:12.902Z,101587.05
2019-03-25T18:23:44.641Z,101588.55
2019-03-25T18:26:15.576Z,101588.94
2019-03-25T18:28:46.519Z,101591.98
2019-03-25T18:31:17.428Z,101590.37
2019-03-25T18:33:49.246Z,101594.20
2019-03-25T18:36:20.181Z,101591.64
2019-03-25T18:38:51.169Z,101599.28
2019-03-25T18:41:22.154Z,101604.58
2019-03-25T18:43:53.092Z,101610.07
2019-03-25T18:46:23.992Z,101612.07
2019-03-25T18:48:55.763Z,101621.48
2019-03-25T18:51:26.666Z,101624.10
2019-03-25T18:53:57.587Z,101627.28
2019-03-25T18:56:28.506Z,101631.73
2019-03-25T18:58:59.454Z,101637.91
2019-03-25T19:01:30.470Z,101629.73
2019-03-25T19:04:02.227Z,101631.55
2019-03-25T19:06:33.238Z,101638.25
2019-03-25T19:09:05.665Z,101641.49
2019-03-25T19:11:36.575Z,101645.84
2019-03-25T19:14:07.522Z,101659.43
2019-03-25T19:16:38.402Z,101658.25
2019-03-25T19:19:09.454Z,101661.72
2019-03-25T19:21:40.537Z,101656.05
2019-03-25T19:24:11.631Z,101665.06
2019-03-25T19:26:42.529Z,101667.22
2019-03-25T19:29:13.501Z,101662.25
2019-03-25T19:31:46.260Z,101666.52
2019-03-25T19:34:18.811Z,101671.59
2019-03-25T19:36:49.711Z,101669.34
2019-03-25T19:39:20.658Z,101670.17
2019-03-25T19:41:51.671Z,101673.09
2019-03-25T19:44:22.695Z,101676.02
2019-03-25T19:46:53.550Z,101674.66
2019-03-25T19:49:25.358Z,101680.64
2019-03-25T19:51:56.278Z,101684.47
2019-03-25T19:54:27.222Z,101693.90
2019-03-25T19:56:58.118Z,101697.77
2019-03-25T19:59:29.034Z,101697.06
2019-03-25T20:01:59.969Z,101704.42
2019-03-25T20:04:31.722Z,101715.33
2019-03-25T20:07:02.671Z,101713.95
2019-03-25T20:09:33.564Z,101724.55
2019-03-25T20:12:04.478Z,101722.55
2019-03-25T20:14:35.497Z,101724.81
2019-03-25T20:17:06.423Z,101729.38
2019-03-25T20:19:38.084Z,101726.72
2019-03-25T20:22:09.134Z,101729.77
2019-03-25T20:24:40.853Z,101728.95
2019-03-25T20:27:11.772Z,101736.14
2019-03-25T20:29:42.764Z,101737.45
2019-03-25T20:32:31.867Z,101738.67
2019-03-25T20:35:07.391Z,101744.02
2019-03-25T20:37:38.330Z,101749.50
2019-03-25T20:40:09.587Z,101754.80
2019-03-25T20:42:40.511Z,101757.95
2019-03-25T20:45:11.790Z,101762.27
2019-03-25T20:47:42.738Z,101770.94
2019-03-25T20:50:14.987Z,101771.77
2019-03-25T20:52:45.872Z,101775.15
2019-03-25T20:55:18.436Z,101773.69
2019-03-25T20:57:49.369Z,101777.22
2019-03-25T21:00:23.269Z,101778.44
2019-03-25T21:02:54.214Z,101788.77
2019-03-25T21:05:25.340Z,101784.34
2019-03-25T21:07:56.253Z,101783.47
2019-03-25T21:10:27.208Z,101785.16
2019-03-25T21:12:58.079Z,101788.07
2019-03-25T21:15:28.999Z,101788.91
2019-03-25T21:17:59.948Z,101796.28
2019-03-25T21:20:31.724Z,101810.33
2019-03-25T21:23:02.649Z,101808.52
2019-03-25T21:25:33.669Z,101798.86
2019-03-25T21:28:04.519Z,101800.29
2019-03-25T21:30:47.373Z,101807.87
2019-03-25T21:33:08.071Z,101809.94
2019-03-25T21:35:40.620Z,101815.20
2019-03-25T21:38:11.537Z,101814.42
2019-03-25T21:40:42.505Z,101820.24
2019-03-25T21:43:13.475Z,101815.74
2019-03-25T21:45:44.422Z,101813.77
2019-03-25T21:48:15.329Z,101818.98
2019-03-25T21:50:47.922Z,101817.13
2019-03-25T21:53:18.922Z,101820.23
2019-03-25T21:55:49.853Z,101819.56
2019-03-25T21:58:20.845Z,101821.88
2019-03-25T22:00:51.866Z,101815.86
2019-03-25T22:03:22.794Z,101807.58
2019-03-25T22:05:53.753Z,101814.16
2019-03-25T22:08:24.639Z,101813.41
2019-03-25T22:10:55.563Z,101818.20
2019-03-25T22:13:26.528Z,101819.55
2019-03-25T22:15:57.451Z,101815.23
2019-03-25T22:18:30.735Z,101818.33
2019-03-25T22:21:01.796Z,101816.63
2019-03-25T22:23:32.693Z,101822.77
2019-03-25T22:26:03.609Z,101826.73
2019-03-25T22:28:34.509Z,101825.03
2019-03-25T22:31:05.434Z,101829.86
2019-03-25T22:33:36.317Z,101832.08
2019-03-25T22:36:08.865Z,101829.50
2019-03-25T22:38:39.750Z,101831.28
2019-03-25T22:41:10.674Z,101838.30
2019-03-25T22:43:41.563Z,101841.42
2019-03-25T22:46:12.479Z,101834.09
2019-03-25T22:48:43.382Z,101838.05
2019-03-25T22:51:15.251Z,101845.92
2019-03-25T22:53:46.168Z,101849.48
2019-03-25T22:56:17.090Z,101851.73
2019-03-25T22:58:47.984Z,101858.77
2019-03-25T23:01:19.823Z,101857.97
2019-03-25T23:03:50.717Z,101854.15
2019-03-25T23:06:21.664Z,101859.88
2019-03-25T23:08:52.623Z,101860.41
2019-03-25T23:11:23.553Z,101863.20
2019-03-25T23:13:54.463Z,101863.20
2019-03-25T23:16:30.295Z,101858.55
2019-03-25T23:19:01.114Z,101869.51
2019-03-25T23:21:32.052Z,101870.03
2019-03-25T23:24:02.951Z,101873.16
2019-03-25T23:26:33.890Z,101865.87
2019-03-25T23:29:04.856Z,101853.77
2019-03-25T23:31:35.802Z,101850.86
2019-03-25T23:34:06.685Z,101850.86
2019-03-25T23:36:39.211Z,101855.66
2019-03-25T23:39:10.119Z,101848.38
2019-03-25T23:41:41.065Z,101849.72
2019-03-25T23:44:11.960Z,101843.33
2019-03-25T23:46:42.885Z,101843.33
2019-03-25T23:49:13.791Z,101849.48
2019-03-25T23:51:45.569Z,101857.80
2019-03-25T23:54:16.548Z,101853.95
2019-03-25T23:56:47.473Z,101853.98
2019-03-25T23:59:18.380Z,101861.84
